createdAt,value
2022-07-29T00:01:19.449Z,0.90
2022-07-29T00:03:47.613Z,0.85
2022-07-29T00:06:16.149Z,2.30
2022-07-29T00:08:43.489Z,0.80
2022-07-29T00:11:10.856Z,0.88
2022-07-29T00:13:38.281Z,1.02
2022-07-29T00:16:05.881Z,1.08
2022-07-29T00:18:33.804Z,1.15
2022-07-29T00:21:01.158Z,1.30
2022-07-29T00:23:29.241Z,1.15
2022-07-29T00:25:57.279Z,1.13
2022-07-29T00:28:24.609Z,0.80
2022-07-29T00:30:51.943Z,1.13
2022-07-29T00:33:19.270Z,1.10
2022-07-29T00:35:47.026Z,1.27
2022-07-29T00:38:16.482Z,1.13
2022-07-29T00:40:45.218Z,1.27
2022-07-29T00:43:14.652Z,1.50
2022-07-29T00:45:42.848Z,1.20
2022-07-29T00:48:11.496Z,1.30
2022-07-29T00:50:40.048Z,1.95
2022-07-29T00:53:08.702Z,1.30
2022-07-29T00:55:36.512Z,1.10
2022-07-29T00:58:04.366Z,1.60
2022-07-29T01:00:32.168Z,1.20
2022-07-29T01:02:59.535Z,1.08
2022-07-29T01:05:50.106Z,1.10
2022-07-29T01:08:17.793Z,1.20
2022-07-29T01:10:46.694Z,1.38
2022-07-29T01:13:15.693Z,0.93
2022-07-29T01:15:49.222Z,1.20
2022-07-29T01:18:29.470Z,1.10
2022-07-29T01:21:24.942Z,0.80
2022-07-29T01:23:57.412Z,1.35
2022-07-29T01:27:07.174Z,1.30
2022-07-29T01:29:44.823Z,1.38
2022-07-29T01:32:28.916Z,1.60
2022-07-29T01:38:20.551Z,1.00
2022-07-29T01:40:55.080Z,1.50
2022-07-29T01:43:28.524Z,1.83
2022-07-29T01:46:02.298Z,1.35
2022-07-29T01:48:38.489Z,1.75
2022-07-29T01:51:34.055Z,1.67
2022-07-29T01:54:46.866Z,1.75
2022-07-29T01:57:18.352Z,2.30
2022-07-29T01:59:47.957Z,2.20
2022-07-29T02:02:17.408Z,2.35
2022-07-29T02:04:49.509Z,1.65
2022-07-29T02:07:22.760Z,1.63
2022-07-29T02:09:52.535Z,1.90
2022-07-29T02:12:21.607Z,1.50
2022-07-29T02:14:51.786Z,2.05
2022-07-29T02:17:27.278Z,2.10
2022-07-29T02:20:03.098Z,1.55
2022-07-29T02:22:34.478Z,1.73
2022-07-29T02:25:03.164Z,1.20
2022-07-29T02:27:34.942Z,1.50
2022-07-29T02:30:04.258Z,1.73
2022-07-29T02:32:35.260Z,1.80
2022-07-29T02:35:04.001Z,1.40
2022-07-29T02:37:32.692Z,1.63
2022-07-29T02:40:00.717Z,1.52
2022-07-29T02:42:29.406Z,1.92
2022-07-29T02:44:57.294Z,1.48
2022-07-29T02:47:42.672Z,1.63
2022-07-29T02:50:18.667Z,1.80
2022-07-29T02:52:53.650Z,2.50
2022-07-29T02:55:30.811Z,2.30
2022-07-29T02:58:23.841Z,2.85
2022-07-29T03:00:54.301Z,3.33
2022-07-29T03:03:22.785Z,3.15
2022-07-29T03:05:50.215Z,3.75
2022-07-29T03:08:17.977Z,4.00
2022-07-29T03:10:48.186Z,4.25
2022-07-29T03:13:16.448Z,4.65
2022-07-29T03:15:45.948Z,3.60
2022-07-29T03:18:14.440Z,4.50
2022-07-29T03:20:42.328Z,6.75
2022-07-29T03:23:09.841Z,6.22
2022-07-29T03:25:37.431Z,6.68
2022-07-29T03:28:04.985Z,7.03
2022-07-29T03:30:32.389Z,7.68
2022-07-29T03:32:59.724Z,7.10
2022-07-29T03:35:27.213Z,7.72
2022-07-29T03:37:54.520Z,7.47
2022-07-29T03:40:32.019Z,7.03
2022-07-29T03:43:01.408Z,7.75
2022-07-29T03:45:31.767Z,8.63
2022-07-29T03:48:05.166Z,8.02
2022-07-29T03:50:34.042Z,8.15
2022-07-29T03:53:02.293Z,8.30
2022-07-29T03:55:31.864Z,7.85
2022-07-29T03:58:00.705Z,8.98
2022-07-29T04:00:28.945Z,9.10
2022-07-29T04:02:56.648Z,8.65
2022-07-29T04:05:24.049Z,10.20
2022-07-29T04:07:51.404Z,8.00
2022-07-29T04:10:30.243Z,9.27
2022-07-29T04:12:59.804Z,8.65
2022-07-29T04:15:31.291Z,8.63
2022-07-29T04:20:27.079Z,9.05
2022-07-29T04:22:54.409Z,8.95
2022-07-29T04:25:21.938Z,8.35
2022-07-29T04:28:01.462Z,10.02
2022-07-29T04:30:30.146Z,9.05
2022-07-29T04:32:57.503Z,10.10
2022-07-29T04:35:24.988Z,8.57
2022-07-29T04:37:52.672Z,9.75
2022-07-29T04:40:20.336Z,8.65
2022-07-29T04:42:47.902Z,8.90
2022-07-29T04:45:22.167Z,7.75
2022-07-29T04:47:50.630Z,8.52
2022-07-29T04:50:18.329Z,8.70
2022-07-29T04:52:45.906Z,9.05
2022-07-29T04:55:13.386Z,9.45
2022-07-29T04:57:40.704Z,8.55
2022-07-29T05:00:09.269Z,10.18
2022-07-29T05:02:36.634Z,10.18
2022-07-29T05:05:04.603Z,9.98
2022-07-29T05:07:32.009Z,10.27
2022-07-29T05:09:59.499Z,11.05
2022-07-29T05:12:27.080Z,10.32
2022-07-29T05:14:54.505Z,9.70
2022-07-29T05:17:21.967Z,11.30
2022-07-29T05:19:51.561Z,11.18
2022-07-29T05:24:48.999Z,10.73
2022-07-29T05:27:16.409Z,11.52
2022-07-29T05:29:45.845Z,11.60
2022-07-29T05:32:14.498Z,11.75
2022-07-29T05:34:51.370Z,10.93
2022-07-29T05:37:22.608Z,10.80
2022-07-29T05:39:50.852Z,11.10
2022-07-29T05:42:27.764Z,10.88
2022-07-29T05:44:57.732Z,11.68
2022-07-29T05:47:25.611Z,11.80
2022-07-29T05:49:53.037Z,10.85
2022-07-29T05:52:20.549Z,11.82
2022-07-29T05:54:48.261Z,11.15
2022-07-29T05:57:20.556Z,10.90
2022-07-29T05:59:51.516Z,11.88
2022-07-29T06:02:19.096Z,10.27
2022-07-29T06:04:46.593Z,11.35
2022-07-29T06:07:14.243Z,9.88
2022-07-29T06:09:41.709Z,11.27
2022-07-29T06:12:09.391Z,10.38
2022-07-29T06:14:37.000Z,10.07
2022-07-29T06:17:06.850Z,9.48
2022-07-29T06:19:37.485Z,9.68
2022-07-29T06:22:05.397Z,10.65
2022-07-29T06:24:32.758Z,10.05
2022-07-29T06:27:00.156Z,10.95
2022-07-29T06:29:27.520Z,11.50
2022-07-29T06:31:57.603Z,10.70
2022-07-29T06:34:24.915Z,10.07
2022-07-29T06:36:53.759Z,9.80
2022-07-29T06:39:22.153Z,9.80
2022-07-29T06:41:52.569Z,11.45
2022-07-29T06:44:25.772Z,10.07
2022-07-29T06:46:54.090Z,10.00
2022-07-29T06:49:21.485Z,11.25
2022-07-29T06:51:48.890Z,10.93
2022-07-29T06:54:16.449Z,9.85
2022-07-29T06:56:44.541Z,10.13
2022-07-29T06:59:12.811Z,9.90
2022-07-29T07:01:43.155Z,10.85
2022-07-29T07:04:11.557Z,11.13
2022-07-29T07:06:39.464Z,11.60
2022-07-29T07:09:09.571Z,10.48
2022-07-29T07:11:39.437Z,9.50
2022-07-29T07:14:06.829Z,11.73
2022-07-29T07:16:34.336Z,9.63
2022-07-29T07:19:01.896Z,9.10
2022-07-29T07:21:30.624Z,9.63
2022-07-29T07:23:59.519Z,8.95
2022-07-29T07:26:28.139Z,10.85
2022-07-29T07:28:57.488Z,9.95
2022-07-29T07:31:27.429Z,10.50
2022-07-29T07:33:55.964Z,10.23
2022-07-29T07:36:24.268Z,9.52
2022-07-29T07:38:51.686Z,9.40
2022-07-29T07:41:19.072Z,8.95
2022-07-29T07:43:46.434Z,10.02
2022-07-29T07:46:14.047Z,9.13
2022-07-29T07:48:41.712Z,9.10
2022-07-29T07:51:09.166Z,9.77
2022-07-29T07:53:36.503Z,8.55
2022-07-29T07:56:10.937Z,8.63
2022-07-29T07:58:40.800Z,9.00
2022-07-29T08:01:08.907Z,8.75
2022-07-29T08:03:37.141Z,10.07
2022-07-29T08:06:05.008Z,9.95
2022-07-29T08:08:32.490Z,9.52
2022-07-29T08:11:08.290Z,7.97
2022-07-29T08:13:37.085Z,8.15
2022-07-29T08:16:14.421Z,8.50
2022-07-29T08:18:43.265Z,8.15
2022-07-29T08:21:11.240Z,9.63
2022-07-29T08:23:56.188Z,7.75
2022-07-29T08:26:25.500Z,10.00
2022-07-29T08:28:52.923Z,9.30
2022-07-29T08:31:20.372Z,9.85
2022-07-29T08:33:47.770Z,8.25
2022-07-29T08:36:15.240Z,8.77
2022-07-29T08:38:42.588Z,8.02
2022-07-29T08:41:13.002Z,9.82
2022-07-29T08:43:42.822Z,9.27
2022-07-29T08:46:10.375Z,9.68
2022-07-29T08:48:38.936Z,11.43
2022-07-29T08:51:08.823Z,11.85
2022-07-29T08:53:39.062Z,13.52
2022-07-29T08:56:07.222Z,11.13
2022-07-29T08:58:36.715Z,12.45
2022-07-29T09:01:05.032Z,11.13
2022-07-29T09:03:37.486Z,11.00
2022-07-29T09:06:05.628Z,9.82
2022-07-29T09:08:34.367Z,9.85
2022-07-29T09:11:05.486Z,10.02
2022-07-29T09:16:02.499Z,10.35
2022-07-29T09:18:40.959Z,10.57
2022-07-29T09:21:30.463Z,8.95
2022-07-29T09:24:03.486Z,8.35
2022-07-29T09:26:32.280Z,8.77
2022-07-29T09:29:00.162Z,8.63
2022-07-29T09:31:37.938Z,8.30
2022-07-29T09:34:06.111Z,7.45
2022-07-29T09:36:44.531Z,7.43
2022-07-29T09:39:12.539Z,7.75
2022-07-29T09:41:53.962Z,7.60
2022-07-29T09:44:23.104Z,7.45
2022-07-29T09:47:07.963Z,8.80
2022-07-29T09:49:53.494Z,8.82
2022-07-29T09:52:22.340Z,8.68
2022-07-29T09:54:49.831Z,7.07
2022-07-29T09:57:44.015Z,6.80
2022-07-29T10:00:22.775Z,7.88
2022-07-29T10:02:50.122Z,7.53
2022-07-29T10:05:25.999Z,6.78
2022-07-29T10:07:58.301Z,6.88
2022-07-29T10:10:34.898Z,7.70
2022-07-29T10:13:11.015Z,7.45
2022-07-29T10:15:46.794Z,8.00
2022-07-29T10:18:15.562Z,8.38
2022-07-29T10:20:43.016Z,9.82
2022-07-29T10:23:10.476Z,9.45
2022-07-29T10:25:38.082Z,8.90
2022-07-29T10:28:07.036Z,9.35
2022-07-29T10:30:35.082Z,7.90
2022-07-29T10:33:34.783Z,8.80
2022-07-29T10:36:25.509Z,8.48
2022-07-29T10:39:22.855Z,6.27
2022-07-29T10:42:29.574Z,6.47
2022-07-29T10:45:04.770Z,7.53
2022-07-29T10:47:32.788Z,5.67
2022-07-29T10:50:05.638Z,5.93
2022-07-29T10:52:55.081Z,5.63
2022-07-29T10:55:39.444Z,5.20
2022-07-29T10:58:23.469Z,4.70
2022-07-29T11:00:53.242Z,5.00
2022-07-29T11:03:52.430Z,6.20
2022-07-29T11:06:26.932Z,6.50
2022-07-29T11:09:20.214Z,6.43
2022-07-29T11:11:53.476Z,6.20
2022-07-29T11:15:02.656Z,6.95
2022-07-29T11:17:47.247Z,4.53
2022-07-29T11:20:43.806Z,4.45
2022-07-29T11:23:33.555Z,5.93
2022-07-29T11:26:22.917Z,3.80
2022-07-29T11:29:23.221Z,3.38
2022-07-29T11:31:57.053Z,3.50
2022-07-29T11:34:34.768Z,2.47
2022-07-29T11:37:29.218Z,2.90
2022-07-29T11:40:18.599Z,2.10
2022-07-29T11:42:47.050Z,2.50
2022-07-29T11:45:44.312Z,2.22
2022-07-29T11:48:28.798Z,1.80
2022-07-29T11:50:54.085Z,2.58
2022-07-29T11:53:22.315Z,1.60
2022-07-29T11:55:56.458Z,2.13
2022-07-29T11:58:27.139Z,1.67
2022-07-29T12:00:55.607Z,1.80
2022-07-29T12:03:34.895Z,1.90
2022-07-29T12:06:04.042Z,2.03
2022-07-29T12:08:31.567Z,1.70
2022-07-29T12:10:59.016Z,1.77
2022-07-29T12:13:39.050Z,1.88
2022-07-29T12:16:06.719Z,2.35
2022-07-29T12:18:34.177Z,1.80
2022-07-29T12:21:05.847Z,1.80
2022-07-29T12:23:34.442Z,1.80
2022-07-29T12:26:07.595Z,1.60
2022-07-29T12:28:41.346Z,1.80
2022-07-29T12:31:41.954Z,1.75
2022-07-29T12:34:02.873Z,2.25
2022-07-29T12:36:30.492Z,2.10
2022-07-29T12:38:57.881Z,1.60
2022-07-29T12:41:25.267Z,1.88
2022-07-29T12:43:54.506Z,1.90
2022-07-29T12:46:22.015Z,1.98
2022-07-29T12:48:56.143Z,1.90
2022-07-29T12:51:34.033Z,1.77
2022-07-29T12:54:14.301Z,1.75
2022-07-29T12:56:45.317Z,1.35
2022-07-29T12:59:20.887Z,2.00
2022-07-29T13:01:51.121Z,1.60
2022-07-29T13:04:32.843Z,1.55
2022-07-29T13:08:29.584Z,2.33
2022-07-29T13:10:17.053Z,2.47
2022-07-29T13:13:14.806Z,2.63
2022-07-29T13:15:49.917Z,2.28
2022-07-29T13:18:34.797Z,2.28
2022-07-29T13:21:13.916Z,1.63
2022-07-29T13:23:41.401Z,1.92
2022-07-29T13:26:09.874Z,1.98
2022-07-29T13:28:37.250Z,2.67
2022-07-29T13:31:05.872Z,2.50
2022-07-29T13:33:33.250Z,2.08
2022-07-29T13:36:00.617Z,1.90
2022-07-29T13:38:31.309Z,2.08
2022-07-29T13:40:59.401Z,2.28
2022-07-29T13:43:26.847Z,2.47
2022-07-29T13:45:54.226Z,2.70
2022-07-29T13:48:21.740Z,3.03
2022-07-29T13:50:49.331Z,2.20
2022-07-29T13:53:18.116Z,2.20
2022-07-29T13:55:45.750Z,2.15
2022-07-29T13:58:13.157Z,1.90
2022-07-29T14:00:40.526Z,1.73
2022-07-29T14:03:07.820Z,2.15
2022-07-29T14:05:35.112Z,2.33
2022-07-29T14:08:02.491Z,2.17
2022-07-29T14:10:29.842Z,3.17
2022-07-29T14:12:57.218Z,2.60
2022-07-29T14:15:24.652Z,3.90
2022-07-29T14:17:52.170Z,3.97
2022-07-29T14:20:19.845Z,2.65
2022-07-29T14:22:47.197Z,2.42
2022-07-29T14:25:15.543Z,2.03
2022-07-29T14:27:44.698Z,2.10
2022-07-29T14:30:12.923Z,1.83
2022-07-29T14:32:40.582Z,2.47
2022-07-29T14:35:09.092Z,1.88
2022-07-29T14:37:40.271Z,2.17
2022-07-29T14:40:09.738Z,2.17
2022-07-29T14:42:38.545Z,2.33
2022-07-29T14:45:07.643Z,1.88
2022-07-29T14:47:35.592Z,2.00
2022-07-29T14:50:03.877Z,1.90
2022-07-29T14:52:31.292Z,2.20
2022-07-29T14:54:58.773Z,2.03
2022-07-29T14:57:26.318Z,2.13
2022-07-29T14:59:53.679Z,2.47
2022-07-29T15:02:21.362Z,2.20
2022-07-29T15:04:49.142Z,1.98
2022-07-29T15:07:16.964Z,2.25
2022-07-29T15:09:49.890Z,2.42
2022-07-29T15:12:17.890Z,2.85
2022-07-29T15:14:45.220Z,2.03
2022-07-29T15:17:12.613Z,3.38
2022-07-29T15:19:39.933Z,3.20
2022-07-29T15:22:12.465Z,6.53
2022-07-29T15:24:39.851Z,7.40
2022-07-29T15:27:07.236Z,9.80
2022-07-29T15:29:34.604Z,10.13
2022-07-29T15:32:02.488Z,9.38
2022-07-29T15:34:30.122Z,8.27
2022-07-29T15:36:57.825Z,8.70
2022-07-29T15:39:25.133Z,8.45
2022-07-29T15:41:52.817Z,8.27
2022-07-29T15:44:21.165Z,8.05
2022-07-29T15:47:05.651Z,7.05
2022-07-29T15:49:48.303Z,6.63
2022-07-29T15:52:25.676Z,7.25
2022-07-29T15:54:55.913Z,7.18
2022-07-29T15:57:24.561Z,7.15
2022-07-29T15:59:52.266Z,7.70
2022-07-29T16:02:19.945Z,7.78
2022-07-29T16:04:47.759Z,7.40
2022-07-29T16:07:15.607Z,6.80
2022-07-29T16:09:49.336Z,7.13
2022-07-29T16:12:21.507Z,8.27
2022-07-29T16:14:50.988Z,7.00
2022-07-29T16:17:19.534Z,7.82
2022-07-29T16:19:46.883Z,7.85
2022-07-29T16:22:14.473Z,7.30
2022-07-29T16:24:41.885Z,8.05
2022-07-29T16:27:09.329Z,7.60
2022-07-29T16:29:37.333Z,7.72
2022-07-29T16:32:06.194Z,7.47
2022-07-29T16:34:33.942Z,7.00
2022-07-29T16:37:01.497Z,6.35
2022-07-29T16:39:28.971Z,5.95
2022-07-29T16:42:00.018Z,5.63
2022-07-29T16:44:29.140Z,5.68
2022-07-29T16:46:58.907Z,5.32
2022-07-29T16:49:27.603Z,5.20
2022-07-29T16:51:55.259Z,5.25
2022-07-29T16:54:22.928Z,4.90
2022-07-29T16:56:50.257Z,4.40
2022-07-29T16:59:17.669Z,4.78
2022-07-29T17:01:45.047Z,4.80
2022-07-29T17:04:14.980Z,4.78
2022-07-29T17:06:42.659Z,5.20
2022-07-29T17:09:11.622Z,5.20
2022-07-29T17:11:52.349Z,4.38
2022-07-29T17:14:26.246Z,4.15
2022-07-29T17:17:00.574Z,4.43
2022-07-29T17:19:32.912Z,3.70
2022-07-29T17:22:10.452Z,3.00
2022-07-29T17:24:40.970Z,3.33
2022-07-29T17:27:09.800Z,3.00
2022-07-29T17:29:38.808Z,3.00
2022-07-29T17:32:07.734Z,3.30
2022-07-29T17:34:36.954Z,3.03
2022-07-29T17:37:06.000Z,2.70
2022-07-29T17:39:35.420Z,2.33
2022-07-29T17:42:04.331Z,2.47
2022-07-29T17:44:33.000Z,2.20
2022-07-29T17:47:05.144Z,2.97
2022-07-29T17:49:33.504Z,3.85
2022-07-29T17:52:04.000Z,3.22
2022-07-29T17:54:31.373Z,12.30
2022-07-29T17:56:58.871Z,4.90
2022-07-29T17:59:26.428Z,3.03
2022-07-29T18:01:54.194Z,3.20
2022-07-29T18:04:23.444Z,3.50
2022-07-29T18:06:51.067Z,3.25
2022-07-29T18:09:18.587Z,3.00
2022-07-29T18:11:46.299Z,2.95
2022-07-29T18:14:13.692Z,3.00
2022-07-29T18:16:41.166Z,3.10
2022-07-29T18:19:08.492Z,3.72
2022-07-29T18:21:43.777Z,2.97
2022-07-29T18:24:27.621Z,2.70
2022-07-29T18:26:55.146Z,3.70
2022-07-29T18:29:22.567Z,3.72
2022-07-29T18:31:50.237Z,3.50
2022-07-29T18:34:17.652Z,3.80
2022-07-29T18:36:45.918Z,4.75
2022-07-29T18:39:20.240Z,3.45
2022-07-29T18:41:51.865Z,3.03
2022-07-29T18:44:22.084Z,3.03
2022-07-29T18:46:51.756Z,3.43
2022-07-29T18:49:19.539Z,3.78
2022-07-29T18:51:47.109Z,3.10
2022-07-29T18:54:14.602Z,3.42
2022-07-29T18:56:42.017Z,2.90
2022-07-29T18:59:09.518Z,3.00
2022-07-29T19:01:37.939Z,2.97
2022-07-29T19:04:05.442Z,3.00
2022-07-29T19:06:32.743Z,2.63
2022-07-29T19:09:00.281Z,2.58
2022-07-29T19:11:27.593Z,2.40
2022-07-29T19:13:55.001Z,2.70
2022-07-29T19:16:22.354Z,2.92
2022-07-29T19:18:49.813Z,2.95
2022-07-29T19:21:17.371Z,3.15
2022-07-29T19:24:00.008Z,2.72
2022-07-29T19:26:33.349Z,3.10
2022-07-29T19:29:00.763Z,2.42
2022-07-29T19:31:28.286Z,2.95
2022-07-29T19:33:55.731Z,3.35
2022-07-29T19:36:23.055Z,2.67
2022-07-29T19:38:50.435Z,3.03
2022-07-29T19:41:17.780Z,3.28
2022-07-29T19:43:50.721Z,2.95
2022-07-29T19:46:24.150Z,2.72
2022-07-29T19:48:52.986Z,3.30
2022-07-29T19:51:20.608Z,4.72
2022-07-29T19:53:48.152Z,3.63
2022-07-29T19:56:15.458Z,3.95
2022-07-29T19:58:44.080Z,3.22
2022-07-29T20:01:12.646Z,4.55
2022-07-29T20:03:40.299Z,2.90
2022-07-29T20:06:07.893Z,2.80
2022-07-29T20:08:35.350Z,5.03
2022-07-29T20:11:03.073Z,4.03
2022-07-29T20:13:33.056Z,2.88
2022-07-29T20:16:01.218Z,2.65
2022-07-29T20:18:28.785Z,2.70
2022-07-29T20:20:57.509Z,3.15
2022-07-29T20:23:24.954Z,2.88
2022-07-29T20:25:52.378Z,2.80
2022-07-29T20:28:21.495Z,2.28
2022-07-29T20:30:48.851Z,2.75
2022-07-29T20:33:16.587Z,2.63
2022-07-29T20:35:43.912Z,2.42
2022-07-29T20:38:15.022Z,3.00
2022-07-29T20:40:45.408Z,2.92
2022-07-29T20:43:12.966Z,3.17
2022-07-29T20:45:40.287Z,2.90
2022-07-29T20:48:08.415Z,3.20
2022-07-29T20:50:35.982Z,3.15
2022-07-29T20:53:03.692Z,2.97
2022-07-29T20:55:32.116Z,2.92
2022-07-29T20:57:59.562Z,2.95
2022-07-29T21:00:27.050Z,2.38
2022-07-29T21:02:54.634Z,3.03
2022-07-29T21:05:22.214Z,2.58
2022-07-29T21:07:49.668Z,2.97
2022-07-29T21:10:18.344Z,2.50
2022-07-29T21:12:46.674Z,2.78
2022-07-29T21:15:20.435Z,2.47
2022-07-29T21:17:48.521Z,2.28
2022-07-29T21:20:17.428Z,2.42
2022-07-29T21:22:45.065Z,3.22
2022-07-29T21:25:12.750Z,2.88
2022-07-29T21:27:59.093Z,3.25
2022-07-29T21:30:26.417Z,2.90
2022-07-29T21:32:53.869Z,2.90
2022-07-29T21:35:58.816Z,3.60
2022-07-29T21:38:08.677Z,3.17
2022-07-29T21:40:36.014Z,3.50
2022-07-29T21:43:03.390Z,3.50
2022-07-29T21:45:30.707Z,2.70
2022-07-29T21:47:58.070Z,3.40
2022-07-29T21:50:25.397Z,3.30
2022-07-29T21:52:52.807Z,3.85
2022-07-29T21:55:20.633Z,3.33
2022-07-29T21:57:49.948Z,2.90
2022-07-29T22:00:17.339Z,3.17
2022-07-29T22:02:45.463Z,2.90
2022-07-29T22:05:13.481Z,2.70
2022-07-29T22:07:55.568Z,2.80
2022-07-29T22:10:29.250Z,2.70
2022-07-29T22:12:58.400Z,2.80
2022-07-29T22:15:26.423Z,2.75
2022-07-29T22:17:53.945Z,2.90
2022-07-29T22:20:21.563Z,3.63
2022-07-29T22:22:49.387Z,3.35
2022-07-29T22:25:17.695Z,2.85
2022-07-29T22:27:45.111Z,3.17
2022-07-29T22:30:13.443Z,2.42
2022-07-29T22:32:40.959Z,2.75
2022-07-29T22:35:08.841Z,3.70
2022-07-29T22:37:36.217Z,3.28
2022-07-29T22:40:04.636Z,2.55
2022-07-29T22:42:32.229Z,3.17
2022-07-29T22:44:59.580Z,3.45
2022-07-29T22:47:45.927Z,2.85
2022-07-29T22:50:14.306Z,3.17
2022-07-29T22:52:41.666Z,3.15
2022-07-29T22:55:09.270Z,3.28
2022-07-29T22:57:36.601Z,3.40
2022-07-29T23:00:05.865Z,2.80
2022-07-29T23:02:33.233Z,3.13
2022-07-29T23:05:00.606Z,3.13
2022-07-29T23:07:27.980Z,3.13
2022-07-29T23:09:55.308Z,3.50
2022-07-29T23:12:22.615Z,3.42
2022-07-29T23:14:49.979Z,3.60
2022-07-29T23:17:17.420Z,3.03
2022-07-29T23:19:45.499Z,2.95
2022-07-29T23:22:12.857Z,3.22
2022-07-29T23:24:40.182Z,3.08
2022-07-29T23:27:08.401Z,3.35
2022-07-29T23:29:36.916Z,3.30
2022-07-29T23:32:04.895Z,3.85
2022-07-29T23:34:32.217Z,3.30
2022-07-29T23:36:59.750Z,3.83
2022-07-29T23:39:27.268Z,3.45
2022-07-29T23:41:54.637Z,3.40
2022-07-29T23:44:22.001Z,3.17
2022-07-29T23:46:49.698Z,3.53
2022-07-29T23:49:17.141Z,4.22
2022-07-29T23:51:44.602Z,3.70
2022-07-29T23:54:11.958Z,3.72
2022-07-29T23:56:39.374Z,3.80
2022-07-29T23:59:06.794Z,3.78
